Main page
METAR-TAF:

METAR-TAF

Airports :

Sandpoint Airport

Sandpoint, Idaho, United States

latitude: 48-17-58N, longitude: 116-33-36W, elevation: 648 m

Current weather observation

The report was made 25 minutes ago, at 03:15 UTC
Wind 6 kt from the West/Southwest
Temperature 21°C
Humidity 25%
Pressure 1010 hPa
Visibility: 16.1 km
Clear sky

METAR: KSZT 240315Z AUTO 24006KT 10SM CLR 21/00 A2983 RMK AO2

Time: 20:40 (03:40 UTC)


TAF: missing

Weather observations and forecasts of more than 4000 airports (METAR and TAF reports).

The available stations are represented by yellow and red dots on the map.

Hover mouse over dot to see the name of the station.

Then click to see weather observations and forecasts.

To change the map : click on the green buttons with a black cross to zoom in, on the green button with a dash to zoom out, or on the green arrows for adjacent maps.


METAR-TAF: